Tiempo atmosférico en la estación meteorológica de Aragüés Del Puerto, Huesca (1120 m.)



Fecha
DESCASC
Temp. máxima en grados centígrados (hora)
DESCASC
Temp. mínima en grados centígrados (hora)
DESCASC
Temp. media en grados centígrados
DESCASC
Racha de viento máxima en m/sg (hora)
DESCASC
Velocidad máxima media en intervalos de 10 minutos(hora)
DESCASC
Precipitaciones diarias en mm
DESCASC
Precipitaciones de 00:00 a 06:00 en mm
DESCASC
Precipitaciones de 06:00 a 12:00 en mm
DESCASC
Precipitaciones de 12:00 a 18:00 en mm
DESCASC
Precipitaciones de 18:00 a 24:00 en mm
DESCASC
08-12-2019 11.9 (12:20) 1.5 (05:40) 6.7 6.11 (13:00) 3.33 (12:20) 2.2 0 0 2 0.2
07-12-2019 13.1 (14:40) 1.6 (08:00) 7.4 4.72 (02:40) 2.5 (14:50) 0 0 0 0 0
06-12-2019 11.4 (16:10) 3.1 (23:40) 7.2 5.28 (18:50) 3.61 (18:20) 0 0 0 0 0
05-12-2019 11.6 (15:40) 0.5 (00:00) 6.1 5.56 (14:00) 4.17 (18:50) 0 0 0 0 0
04-12-2019 10.5 (15:30) 0.5 (00:00) 5.5 6.67 (09:20) 4.44 (09:40) 0 0 0 0 0
03-12-2019 9.7 (14:30) -2.8 (-00:0) 3.4 5 (19:10) 3.06 (18:10) 0 0 0 0 0
02-12-2019 10.3 (14:50) -0.5 (-00:0) 4.9 4.72 (21:50) 3.61 (21:50) 0 0 0 0 0
01-12-2019 9.6 (14:50) 1 (00:00) 5.3 5.28 (19:00) 3.89 (18:30) 0 0 0 0 0
30-11-2019 10.3 (15:20) 2.6 (00:00) 6.5 -- (--) -- (--) 15.2 0 0.2 0.4 14.6
29-11-2019 12.8 (15:00) 2.7 (00:00) 7.8 7.5 (13:40) 4.17 (22:00) 1.8 1.8 0 0 0
28-11-2019 8.7 (10:10) 4.6 (00:00) 6.6 4.72 (10:10) 2.5 (18:30) 10.6 1.4 0.6 1.6 7
27-11-2019 10.8 (00:00) 4.3 (00:00) 7.6 -- (--) -- (--) 19 7.6 0 0.2 11.2
26-11-2019 12.2 (14:20) 4.3 (00:00) 8.3 10.28 (19:50) 5.28 (21:50) 0 0 0 0 0
25-11-2019 11.7 (15:00) 3 (00:00) 7.3 5.28 (18:50) 3.89 (18:50) 0 0 0 0 0
24-11-2019 10.3 (14:50) 1.7 (00:00) 6 8.06 (15:50) 3.61 (01:10) 1.2 0.6 0.6 0 0
23-11-2019 5.6 (02:00) 1 (00:00) 3.3 -- (--) -- (--) 19.4 0.4 13.4 3.2 2.4
22-11-2019 6.7 (21:10) 3.1 (00:00) 4.9 -- (--) -- (--) 24.4 0 0.2 10.8 13.4
21-11-2019 6.1 (13:10) 1.7 (00:00) 3.9 5.28 (19:50) 3.89 (19:50) 0.2 0 0 0 0.2
20-11-2019 8 (12:40) -1.2 (-00:0) 3.4 6.67 (23:40) 4.72 (02:40) 0 0 0 0 0
19-11-2019 8.9 (14:40) -3.2 (-00:0) 2.8 6.11 (17:50) 3.89 (22:10) 0 0 0 0 0
18-11-2019 4.9 (15:30) -2.5 (-00:0) 1.2 13.61 (11:20) 6.94 (11:20) 1.2 1.2 0 0 0
17-11-2019 4 (11:40) -1.5 (-00:0) 1.3 5.83 (00:10) 2.5 (04:20) 6.2 1.6 1.8 2.6 0.2
16-11-2019 1.2 (15:10) -4 (-00:0) -1.4 5.83 (04:50) 3.33 (04:50) 12 0 0.2 5 6.8
15-11-2019 2.9 (14:10) -2.4 (-00:0) 0.3 6.39 (15:10) 3.89 (15:10) 9.6 0 3.4 5.2 1
14-11-2019 6 (02:00) -1.5 (-00:0) 2.3 10 (13:10) 4.72 (13:10) 12.2 7.2 5 0 0
13-11-2019 10.9 (11:50) 2.4 (00:00) 6.6 -- (--) -- (--) 0 0 0 0 0
12-11-2019 9.5 (14:00) 0.7 (00:00) 5.1 10.83 (12:00) 4.72 (17:10) 0 0 0 0 0
11-11-2019 8.6 (13:00) -0.9 (05:00) 3.9 -- (--) -- (--) 1.8 0 0 1.8 0

Gráficas

Temp. máximas Temp. mínimas Temp. medias Precipitaciones Rachas de viento máximas Velocidades máximas media en intervalos de 10 minutos

Datos horarios

Fecha y hora oficial Temperatura (ºC) Velocidad del viento (km/h) Dirección del viento Racha (km/h) Dirección de racha Precipitación (mm) Presión (hPa) Tendencia (hPa) Humedad (%)
2019-12-10 23:00:00 4.8 2 Sudeste 9 Norte 0 904.2 -0.9 56
2019-12-10 22:00:00 4.7 0 Calma 9 Nordeste 0 904.4 -0.9 55
2019-12-10 21:00:00 5.3 4 Noroeste 7 Oeste 0 904.9 -0.5 60
2019-12-10 20:00:00 5.2 4 Nordeste 14 Nordeste 0 905.1 -0.4 69
2019-12-10 19:00:00 6.3 4 Norte 14 Nordeste 0 905.3 -0.1 68
2019-12-10 18:00:00 8 11 Norte 16 Norte 0 905.4 -0.2 62
2019-12-10 17:00:00 8.5 0 Calma 9 Sur 0 905.5 -0.6 61
2019-12-10 16:00:00 12.5 5 Sur 13 Sudoeste 0 905.4 -1.3 47
2019-12-10 15:00:00 12.5 8 Sur 15 Sur 0 905.6 -1.2 43
2019-12-10 14:00:00 11.6 9 Sur 15 Sur 0 906.1 -0.7 44
2019-12-10 13:00:00 10.7 12 Sur 21 Sur 0 906.7 0.1 44
2019-12-10 12:00:00 10.4 8 Sur 21 Sudoeste 0 906.8 0.6 41
2019-12-10 11:00:00 7.2 3 Sur 15 Nordeste 0 906.8 0.5 43
2019-12-10 10:00:00 7.3 9 Oeste 20 Sudoeste 0 906.6 0.1 39
2019-12-10 09:00:00 7.9 12 Oeste 30 Oeste 0 906.2 -0.3 32
2019-12-10 08:00:00 4.5 10 Oeste 21 Noroeste 0 906.3 0 39
2019-12-10 07:00:00 4.7 8 Oeste 27 Norte 0 906.5 -0.2 41
2019-12-10 06:00:00 4.9 9 Sur 33 Sudoeste 0 906.5 -0.8 38
2019-12-10 05:00:00 5.7 17 Oeste 35 Oeste 0 906.3 -1.2 29
2019-12-10 04:00:00 4.5 13 Oeste 60 Nordeste 0 906.7 -1.2 46
2019-12-10 03:00:00 5.2 11 Oeste 45 Nordeste 0 907.3 -0.8 51
2019-12-10 02:00:00 6.1 15 Este 37 Norte 0 907.5 0.1 50
2019-12-10 01:00:00 5.1 10 Sur 46 Sur 0 907.9 0.9 54
2019-12-10 00:00:00 5.3 12 Oeste -- -- 0 908.1 0.4 50
2019-12-09 23:00:00 6.6 14 Nordeste -- -- 0 907.4 -0.1 45
2019-12-09 22:00:00 7.5 21 Norte -- -- 0 907 0.1 37
2019-12-09 21:00:00 6.8 17 Norte -- -- 0 907.7 1.1 49
2019-12-09 20:00:00 5.8 -- -- -- -- 0 907.5 1 59
2019-12-09 19:00:00 6.4 -- -- -- -- 0 906.9 0.6 54
2019-12-09 18:00:00 6.1 -- -- -- -- 0 906.6 0.9 54
2019-12-09 17:00:00 5.6 13 Noroeste 35 Noroeste 0 906.5 0.8 71
2019-12-09 16:00:00 6.6 9 Noroeste 55 Norte 0 906.3 0.5 60
2019-12-09 15:00:00 7.4 8 Noroeste -- -- 0 905.7 -0.2 66
2019-12-09 14:00:00 7.6 -- -- -- -- 0.2 905.7 0.1 64
2019-12-09 13:00:00 7.1 9 Oeste 38 Noroeste 0.4 905.8 0.4 71
2019-12-09 12:00:00 7 9 Noroeste 43 Oeste 0.4 905.9 0.8 71
2019-12-09 11:00:00 6 8 Oeste 30 Noroeste 0 905.6 0.6 80
2019-12-09 10:00:00 4.5 6 Noroeste 26 Oeste 0.2 905.4 0.5 87
2019-12-09 09:00:00 4.1 8 Oeste 26 Sudoeste 0 905.1 0.8 88
2019-12-09 08:00:00 4.2 9 Oeste 26 Oeste 0 905 0.4 83
2019-12-09 07:00:00 4.9 12 Oeste 44 Noroeste 0 904.9 -0.3 73
2019-12-09 06:00:00 5.4 16 Noroeste 58 Norte 0 904.3 -1 61
2019-12-09 05:00:00 2.2 7 Oeste 16 Oeste 0 904.6 -0.3 81
2019-12-09 04:00:00 1.1 2 Sur 12 Nordeste 0 905.2 0.3 84
2019-12-09 03:00:00 1.4 8 Norte 14 Nordeste 0 905.3 0.5 84
2019-12-09 02:00:00 1.7 7 Norte 15 Norte 0 904.9 0.3 85
2019-12-09 01:00:00 2.1 6 Norte 14 Norte 0 904.9 0.5 88
2019-12-09 00:00:00 2.4 3 Norte 11 Norte 0 904.8 0.4 88
2019-12-08 23:00:00 3.9 2 Nordeste 10 Norte 0 904.6 1 89
2019-12-08 22:00:00 5.8 6 Oeste 12 Oeste 0 904.4 1.1 79
2019-12-08 21:00:00 7.1 4 Oeste 19 Noroeste 0 904.4 1.3 85
2019-12-08 20:00:00 8.2 5 Oeste 22 Oeste 0.2 903.6 0.5 90
2019-12-08 19:00:00 8.2 9 Noroeste 20 Noroeste 0 903.3 0.3 92
2019-12-08 18:00:00 8.4 6 Noroeste 22 Noroeste 0.8 903.1 0.2 92
2019-12-08 17:00:00 8.8 3 Noroeste 11 Noroeste 1 903.1 0 91
2019-12-08 16:00:00 9 6 Noroeste 18 Oeste 0.2 903 -0.7 88
2019-12-08 15:00:00 9.7 7 Norte 18 Sudoeste 0 902.9 -1 80
2019-12-08 14:00:00 10.8 7 Oeste 19 Sudoeste 0 903.1 -1.6 71
2019-12-08 13:00:00 10.5 12 Sudoeste 22 Sudoeste 0 903.7 -1 69
2019-12-08 12:00:00 11.3 11 Sur 22 Sudoeste 0 903.9 -1.1 64
2019-12-08 11:00:00 8.9 4 Sudeste 9 Sur 0 904.7 0.1 67
2019-12-08 10:00:00 5.6 3 Sur 12 Noroeste 0 904.7 0.3 74
2019-12-08 09:00:00 2.8 0 Calma 4 Sur 0 905 0.4 79
2019-12-08 08:00:00 1.7 4 Nordeste 10 Nordeste 0 904.6 0.1 79
2019-12-08 07:00:00 2.5 8 Norte 15 Norte 0 904.4 -0.6 75
2019-12-08 06:00:00 2.4 4 Norte 8 Nordeste 0 904.6 -0.7 83
2019-12-08 05:00:00 2.1 3 Norte 11 Norte 0 904.5 -1 81
2019-12-08 04:00:00 2.3 0 Calma 9 Nordeste 0 905 -0.7 87
2019-12-08 03:00:00 2.4 3 Nordeste 9 Norte 0 905.3 -0.6 89
2019-12-08 02:00:00 3.7 11 Norte 18 Nordeste 0 905.5 -0.2 79
2019-12-08 01:00:00 3.1 0 Calma 12 Norte 0 905.7 0 86
2019-12-08 00:00:00 3.3 2 Norte 11 Norte 0 905.9 0.5 87
2019-12-07 23:00:00 4 4 Nordeste 12 Nordeste 0 905.7 0.5 86
2019-12-07 22:00:00 4.3 4 Nordeste 9 Norte 0 905.7 0.8 87
2019-12-07 21:00:00 4.9 0 Calma 8 Nordeste 0 905.4 0.8 86
2019-12-07 20:00:00 5.9 4 Este 14 Nordeste 0 905.2 1 82
2019-12-07 19:00:00 6.6 6 Norte 14 Norte 0 904.9 0.9 80
2019-12-07 18:00:00 7.5 5 Norte 9 Norte 0 904.6 0.6 77
2019-12-07 17:00:00 9.4 3 Nordeste 12 Sudoeste 0 904.2 -0.1 69
2019-12-07 16:00:00 12.6 6 Sudoeste 15 Sudoeste 0 904 -0.7 55
2019-12-07 15:00:00 12.7 9 Sudoeste 15 Sudoeste 0 904 -1.4 56
2019-12-07 14:00:00 12.6 6 Sur 13 Sur 0 904.3 -1.1 55
2019-12-07 13:00:00 11.6 5 Sur 11 Sudeste 0 904.7 -0.6 56
2019-12-07 12:00:00 9.8 5 Sudeste 9 Sur 0 905.4 0.5 61
2019-12-07 11:00:00 8 3 Sudeste 12 Nordeste 0 905.4 0.5 70
2019-12-07 10:00:00 5 8 Nordeste 11 Nordeste 0 905.3 0.9 73
2019-12-07 09:00:00 2.7 2 Norte 5 Nordeste 0 904.9 0.7 85
2019-12-07 08:00:00 1.8 3 Oeste 5 Oeste 0 904.9 0.5 86
2019-12-07 07:00:00 2 0 Calma 6 Este 0 904.4 -0.3 85
2019-12-07 06:00:00 2.4 4 Norte 9 Norte 0 904.2 -0.4 83
2019-12-07 05:00:00 2.2 0 Calma 11 Norte 0 904.4 -0.6 84
2019-12-07 04:00:00 2.3 4 Nordeste 11 Norte 0 904.7 -0.7 84
2019-12-07 03:00:00 3 5 Norte 17 Norte 0 904.6 -0.9 83
2019-12-07 02:00:00 3.2 6 Norte 13 Norte 0 905 -0.2 82
2019-12-07 01:00:00 2.2 3 Norte 12 Norte 0 905.4 0.3 89
2019-12-07 00:00:00 3.4 4 Norte 11 Norte 0 905.5 0.5 83
2019-12-06 23:00:00 3.3 3 Norte 13 Nordeste 0 905.2 0.4 85
2019-12-06 22:00:00 3.8 5 Norte 16 Norte 0 905.1 0.8 84
2019-12-06 21:00:00 4.4 8 Norte 15 Nordeste 0 905 0.9 81
2019-12-06 20:00:00 4.9 10 Norte 19 Nordeste 0 904.8 0.8 80
2019-12-06 19:00:00 5.6 8 Norte 19 Norte 0 904.3 0.1 78
2019-12-06 18:00:00 7.1 8 Norte 16 Norte 0 904.1 -0.3 72
2019-12-06 17:00:00 8.7 0 Calma 6 Sur 0 904 -0.9 64
2019-12-06 16:00:00 11.3 5 Sur 12 Sur 0 904.2 -1.3 57
2019-12-06 15:00:00 10.7 5 Sur 9 Sudeste 0 904.4 -1.9 58
2019-12-06 14:00:00 9.7 3 Sur 11 Sur 0 904.9 -1.8 64
2019-12-06 13:00:00 9.6 4 Este 7 Este 0 905.5 -0.5 64
2019-12-06 12:00:00 7.3 4 Nordeste 6 Norte 0 906.3 0.9 79
2019-12-06 11:00:00 5.9 3 Nordeste 16 Norte 0 906.7 1.5 79
2019-12-06 10:00:00 6.2 11 Nordeste 17 Nordeste 0 906 1.2 75
2019-12-06 09:00:00 4.4 0 Calma 7 Nordeste 0 905.4 0.9 85
2019-12-06 08:00:00 3.8 3 Norte 6 Norte 0 905.2 0.5 84
2019-12-06 07:00:00 4.6 4 Nordeste 18 Norte 0 904.8 0.1 80
2019-12-06 06:00:00 4.6 12 Norte 19 Nordeste 0 904.5 -0.4 80
2019-12-06 05:00:00 4.9 4 Nordeste 11 Nordeste 0 904.7 -0.1 82
2019-12-06 04:00:00 5.6 5 Norte 10 Norte 0 904.7 -0.4 80
2019-12-06 03:00:00 5.6 0 Calma 9 Norte 0 904.9 -0.1 83
2019-12-06 02:00:00 5.7 0 Calma 5 Noroeste 0 904.8 -0.1 80
2019-12-06 01:00:00 5.1 2 Oeste 6 Nordeste 0 905.1 0.5 83
2019-12-06 00:00:00 4.6 2 Noroeste 9 Nordeste 0 905 0.6 82
2019-12-05 23:00:00 4.6 5 Nordeste 14 Norte 0 904.9 0.7 82
2019-12-05 22:00:00 4.9 10 Norte 14 Nordeste 0 904.6 1.1 80
2019-12-05 21:00:00 4.7 8 Norte 13 Nordeste 0 904.4 1.5 81
2019-12-05 20:00:00 5.1 6 Norte 16 Norte 0 904.2 2.1 82
2019-12-05 19:00:00 5.7 10 Norte 19 Norte 0 903.5 2.1 80
2019-12-05 18:00:00 6.4 8 Nordeste 14 Nordeste 0 902.9 1.6 78
2019-12-05 17:00:00 8 2 Oeste 12 Sudoeste 0 902.1 0.8 69
2019-12-05 16:00:00 10.2 4 Sudoeste 15 Sudoeste 0 901.4 -0.3 61
2019-12-05 15:00:00 10.8 10 Sudoeste 19 Sudoeste 0 901.3 -0.4 57
2019-12-05 14:00:00 10.6 10 Sudoeste 20 Sudoeste 0 901.3 -0.4 59
2019-12-05 13:00:00 10.6 5 Sudeste 16 Sur 0 901.7 0.6 58
2019-12-05 12:00:00 8.8 4 Sudeste 10 Sur 0 901.7 1.2 61
2019-12-05 11:00:00 6.3 4 Este 11 Nordeste 0 901.7 1.8 70
2019-12-05 10:00:00 3.8 5 Nordeste 8 Nordeste 0 901.1 1.6 80
2019-12-05 09:00:00 1.3 3 Oeste 10 Noroeste 0 900.5 1.7 87
2019-12-05 08:00:00 0.9 4 Oeste 9 Noroeste 0 899.9 1.7 87
2019-12-05 07:00:00 1.4 6 Sudoeste 8 Oeste 0 899.5 1.9 85
2019-12-05 06:00:00 1.9 0 Calma 8 Noroeste 0 898.8 1.5 84
2019-12-05 05:00:00 3 4 Norte 7 Noroeste 0 898.2 1.1 79
2019-12-05 04:00:00 3.1 3 Oeste 7 Nordeste 0 897.6 0.3 79
2019-12-05 03:00:00 3.1 3 Norte 9 Oeste 0 897.3 1.1 79
2019-12-05 02:00:00 3.2 4 Nordeste 14 Norte 0 897.1 1.9 77
2019-12-05 01:00:00 2.8 8 Norte 13 Norte 0 897.3 2.3 78
2019-12-05 00:00:00 3.8 6 Norte 15 Norte 0 896.2 1.3 73
2019-12-04 23:00:00 3.2 4 Norte 9 Nordeste 0 895.2 0.6 75
2019-12-04 22:00:00 4.1 3 Noroeste 14 Norte 0 895 1.3 73
2019-12-04 21:00:00 4.5 4 Nordeste 7 Nordeste 0 894.9 1.5 75
2019-12-04 20:00:00 5.3 2 Noroeste 5 Norte 0 894.6 1.4 73
2019-12-04 19:00:00 5.9 3 Norte 6 Norte 0 893.7 0.5 69
2019-12-04 18:00:00 6.3 2 Este 8 Este 0 893.4 0.4 70
2019-12-04 17:00:00 7.6 2 Oeste 5 Oeste 0 893.2 -0.3 62
2019-12-04 16:00:00 9 3 Sur 11 Sur 0 893.2 -0.5 60
2019-12-04 15:00:00 10.4 5 Sur 9 Sur 0 893 -1.8 54
2019-12-04 14:00:00 8.2 3 Sur 9 Sudoeste 0 893.5 -1.2 63
2019-12-04 13:00:00 8.1 0 Calma 8 Sur 0 893.7 -1.3 63
2019-12-04 12:00:00 7.2 0 Calma 8 Nordeste 0 894.8 -0.1 56
2019-12-04 11:00:00 6.7 2 Norte 15 Nordeste 0 894.7 0 60
2019-12-04 10:00:00 5.9 8 Norte 24 Nordeste 0 895 -0.1 65
2019-12-04 09:00:00 4.6 14 Nordeste 20 Nordeste 0 894.9 -0.5 63
2019-12-04 08:00:00 2.4 7 Norte 16 Norte 0 894.7 -0.9 73
2019-12-04 07:00:00 1.3 4 Norte 15 Norte 0 895.1 -1.7 77
2019-12-04 06:00:00 0.8 3 Nordeste 11 Norte 0 895.4 -1.5 78
2019-12-04 05:00:00 1.5 3 Noroeste 11 Norte 0 895.6 -2.3 73
2019-12-04 04:00:00 0.9 3 Norte 11 Nordeste 0 896.8 -1.8 77
2019-12-04 03:00:00 1.3 0 Calma 10 Nordeste 0 896.9 -2.4 76
2019-12-04 02:00:00 1.4 5 Norte 14 Norte 0 897.9 -1.5 76
2019-12-04 01:00:00 1.1 4 Norte 14 Nordeste 0 898.6 -0.5 78
2019-12-04 00:00:00 1 3 Noroeste 14 Norte 0 899.3 0.4 79
2019-12-03 23:00:00 1.4 2 Nordeste 15 Norte 0 899.4 0.5 78
2019-12-03 22:00:00 1.2 3 Norte 11 Norte 0 899.1 0.4 79
2019-12-03 21:00:00 1.3 4 Norte 12 Nordeste 0 898.9 0.5 79
2019-12-03 20:00:00 2.1 6 Norte 18 Norte 0 898.9 0.8 78
2019-12-03 19:00:00 2.2 6 Norte 16 Norte 0 898.7 0.6 79
2019-12-03 18:00:00 3.8 6 Norte 14 Norte 0 898.4 0.4 74
2019-12-03 17:00:00 6.1 0 Calma 9 Sur 0 898.1 -0.2 63
2019-12-03 16:00:00 8.7 8 Sur 17 Sur 0 898.1 -0.9 54
2019-12-03 15:00:00 9.5 8 Sur 14 Sur 0 898 -1.4 53
2019-12-03 14:00:00 9.3 5 Sur 13 Sur 0 898.3 -1.5 50
2019-12-03 13:00:00 7.5 4 Sudeste 11 Sur 0 899 -0.5 60
2019-12-03 12:00:00 5.6 4 Este 8 Sudeste 0 899.4 0 65
2019-12-03 11:00:00 3.3 4 Este 8 Este 0 899.8 0.7 73
2019-12-03 10:00:00 1.6 2 Este 7 Nordeste 0 899.5 0.3 80
2019-12-03 09:00:00 -1.2 3 Norte 6 Nordeste 0 899.4 0.3 90
2019-12-03 08:00:00 -2.4 3 Norte 8 Norte 0 899.1 -0.4 88
2019-12-03 07:00:00 -2.8 3 Norte 8 Oeste 0 899.2 -0.6 90
2019-12-03 06:00:00 -2.2 2 Nordeste 5 Nordeste 0 899.1 -0.9 89
2019-12-03 05:00:00 -2.3 0 Calma 6 Norte 0 899.5 -0.7 90
2019-12-03 04:00:00 -1.9 0 Calma 9 Oeste 0 899.8 -0.6 89
2019-12-03 03:00:00 -1.9 2 Norte 4 Nordeste 0 900 -0.5 91
2019-12-03 02:00:00 -1.4 0 Calma 9 Norte 0 900.2 -0.3 90
2019-12-03 01:00:00 -0.8 0 Calma 5 Norte 0 900.4 -0.1 86
2019-12-03 00:00:00 -0.3 3 Norte 9 Norte 0 900.5 0.2 84
2019-12-02 23:00:00 0.3 4 Norte 15 Nordeste 0 900.5 0.3 81
2019-12-02 22:00:00 1.5 10 Norte 17 Norte 0 900.5 0.7 75
2019-12-02 21:00:00 1.9 6 Norte 15 Nordeste 0 900.3 0.7 73
2019-12-02 20:00:00 2.4 6 Norte 13 Norte 0 900.2 0.8 71
2019-12-02 19:00:00 3.2 8 Norte 13 Norte 0 899.8 0.6 70
2019-12-02 18:00:00 3.4 3 Norte 6 Norte 0 899.6 0.7 74
2019-12-02 17:00:00 6.1 2 Este 15 Sudoeste 0 899.4 0.2 66
2019-12-02 16:00:00 9.4 7 Sur 17 Sudoeste 0 899.2 -0.3 52
2019-12-02 15:00:00 10.1 8 Sur 16 Sur 0 898.9 -0.9 49
2019-12-02 14:00:00 10 9 Sur 14 Sur 0 899.2 -0.5 52
2019-12-02 13:00:00 9.2 8 Sudeste 13 Sur 0 899.5 0.1 52
2019-12-02 12:00:00 8.6 6 Sudeste 10 Sudeste 0 899.8 0.9 57
2019-12-02 11:00:00 6.7 4 Este 8 Sudeste 0 899.7 1.3 62
2019-12-02 10:00:00 4.4 3 Nordeste 10 Nordeste 0 899.4 1.4 72
2019-12-02 09:00:00 1.9 3 Norte 10 Nordeste 0 898.9 1.2 78
2019-12-02 08:00:00 0.7 4 Oeste 10 Oeste 0 898.4 0.9 80
2019-12-02 07:00:00 0.8 3 Este 9 Norte 0 898 0.5 78
2019-12-02 06:00:00 1.1 3 Sudoeste 14 Norte 0 897.7 0.5 77
2019-12-02 05:00:00 1.2 3 Sur 8 Norte 0 897.5 0.5 78
2019-12-02 04:00:00 1 6 Norte 15 Nordeste 0 897.5 0.4 79
2019-12-02 03:00:00 1 5 Nordeste 9 Norte 0 897.2 0.5 78
2019-12-02 02:00:00 1.2 5 Norte 12 Norte 0 897 0.5 76
2019-12-02 01:00:00 0.7 2 Norte 9 Norte 0 897.1 1.1 84
2019-12-02 00:00:00 1.3 6 Norte 10 Nordeste 0 896.7 1.1 81
2019-12-01 23:00:00 2.1 8 Norte 17 Norte 0 896.5 1.2 79
2019-12-01 22:00:00 2.4 7 Norte 16 Norte 0 896 1.2 79
2019-12-01 21:00:00 2.1 3 Noroeste 10 Nordeste 0 895.6 1.1 82
2019-12-01 20:00:00 2.9 8 Norte 19 Norte 0 895.3 1.1 73
2019-12-01 19:00:00 3.6 14 Nordeste 19 Norte 0 894.8 0.7 75
2019-12-01 18:00:00 4.8 8 Norte 13 Nordeste 0 894.5 0.4 77
2019-12-01 17:00:00 7 4 Norte 15 Sudoeste 0 894.2 -0.3 70
2019-12-01 16:00:00 8.7 10 Sudoeste -- -- 0 894.1 -0.7 69
2019-12-01 15:00:00 9 7 Sudoeste 19 Sudoeste 0 894.1 -1 67
2019-12-01 14:00:00 9 6 Sur 15 Sudoeste 0 894.5 -0.9 68
2019-12-01 13:00:00 8.4 7 Oeste 14 Oeste 0 894.8 -0.4 67
2019-12-01 12:00:00 7.9 5 Sur 9 Sur 0 895.1 0.2 76
2019-12-01 11:00:00 4.9 4 Nordeste 10 Nordeste 0 895.4 1 88
2019-12-01 10:00:00 4.2 3 Este 12 Norte 0 895.2 1 89
2019-12-01 09:00:00 3.5 3 Nordeste 12 Norte 0 894.9 0.8 89
2019-12-01 08:00:00 2.3 8 Norte 16 Norte 0 894.4 -0.2 90
2019-12-01 07:00:00 2.5 4 Norte 17 Nordeste 0 894.2 -0.5 90
2019-12-01 06:00:00 3.2 5 Norte 19 Norte 0 894.1 -1.2 91
2019-12-01 05:00:00 3.3 3 Noroeste 16 Nordeste 0 894.6 -1 90
2019-12-01 04:00:00 3.3 7 Nordeste 13 Nordeste 0 894.7 -0.8 91
2019-12-01 03:00:00 3.7 5 Norte 14 Nordeste 0 895.3 -1 91
2019-12-01 02:00:00 4 6 Norte 12 Nordeste 0 895.6 -0.6 91
2019-12-01 01:00:00 4.5 9 Norte 15 Oeste 0 895.5 -1.2 91
2019-12-01 00:00:00 4.9 6 Norte 15 Nordeste 0 896.3 -0.8 89
2019-11-30 23:00:00 5 4 Norte 12 Oeste 0 896.2 -0.4 93
2019-11-30 22:00:00 5.3 6 Norte 20 Noroeste 0.8 896.7 1.2 92
2019-11-30 21:00:00 5.6 8 Sur 23 Oeste 4.4 897.1 1.4 90
2019-11-30 20:00:00 6.8 7 Sudoeste 40 Oeste 5 896.6 0.6 88
2019-11-30 19:00:00 9.2 9 Sur 30 Sudeste 4.4 895.5 -1.7 90
2019-11-30 18:00:00 9.7 12 Sudeste 38 Sudeste 0.4 895.7 -2.3 85
2019-11-30 17:00:00 9.8 15 Sudeste 31 Sur 0 896 -3 83
2019-11-30 16:00:00 10.2 8 Sudeste 22 Sudeste 0 897.2 -2.8 80
2019-11-30 15:00:00 10.1 5 Sur 14 Nordeste 0 898 -3 80
2019-11-30 14:00:00 9.6 6 Nordeste 14 Nordeste 0 899 -2.5 86
2019-11-30 13:00:00 8.8 5 Norte 15 Nordeste 0 900 -1.4 89
2019-11-30 12:00:00 8.5 3 Sur 12 Nordeste 0 901 -0.5 85
2019-11-30 11:00:00 7.6 9 Nordeste -- -- 0 901.5 0.2 87
2019-11-30 10:00:00 6.7 16 Nordeste 25 Nordeste 0 901.4 -0.1 86
2019-11-30 09:00:00 6 18 Nordeste 28 Nordeste 0.2 901.5 0 83
2019-11-30 08:00:00 5.8 17 Nordeste 24 Nordeste 0 901.3 -0.4 69
2019-11-30 07:00:00 5.8 3 Oeste -- -- 0 901.5 -0.6 53
2019-11-30 06:00:00 5.4 5 Nordeste 21 Nordeste 0 901.5 -1 48
2019-11-30 05:00:00 4.8 17 Norte 23 Nordeste 0 901.7 -1.1 46
2019-11-30 04:00:00 3.6 12 Nordeste -- -- 0 902.1 -1.2 55
2019-11-30 03:00:00 3.4 7 Nordeste 26 Nordeste 0 902.5 -0.6 59
2019-11-30 02:00:00 3.2 9 Norte 17 Nordeste 0 902.8 -0.3 54
2019-11-30 01:00:00 2.7 5 Norte 12 Nordeste 0 903.3 0.1 61
2019-11-30 00:00:00 2.9 5 Norte 15 Nordeste 0 903.1 -0.2 62
2019-11-29 23:00:00 2.9 5 Norte 20 Nordeste 0 903.1 0.1 66
2019-11-29 22:00:00 3.9 15 Norte 22 Norte 0 903.2 0.4 63
2019-11-29 21:00:00 3.7 6 Nordeste 19 Nordeste 0 903.3 1.2 75
2019-11-29 20:00:00 4.5 12 Norte 23 Nordeste 0 903 1 73
2019-11-29 19:00:00 5.1 10 Norte 19 Norte 0 902.8 1.5 76
2019-11-29 18:00:00 6.1 8 Norte 17 Nordeste 0 902.1 0.7 77
2019-11-29 17:00:00 9.2 6 Noroeste 18 Sudoeste 0 902 0.6 61
2019-11-29 16:00:00 12 6 Sudoeste 26 Sudoeste 0 901.3 -0.5 51
2019-11-29 15:00:00 12.7 7 Sudoeste 21 Oeste 0 901.4 -0.6 48
2019-11-29 14:00:00 12.5 10 Sudoeste 27 Sudoeste 0 901.4 -0.5 52
2019-11-29 13:00:00 11.8 11 Sudoeste 21 Sudoeste 0 901.8 0.7 56
2019-11-29 12:00:00 11.4 8 Sur 24 Sudoeste 0 902 1.6 67
2019-11-29 11:00:00 8.6 6 Nordeste 13 Sur 0 901.9 2.1 80
2019-11-29 10:00:00 6.7 6 Nordeste 17 Nordeste 0 901.1 2.1 84
2019-11-29 09:00:00 5.6 9 Norte 19 Nordeste 0 900.4 1.8 87
2019-11-29 08:00:00 5.2 10 Norte 16 Norte 0 899.8 1.8 87
2019-11-29 07:00:00 6.6 2 Noroeste 10 Nordeste 0 899 1.1 91
2019-11-29 06:00:00 7.5 3 Norte 10 Norte 0 898.6 1 93
2019-11-29 05:00:00 7.7 4 Nordeste 10 Norte 0.4 898 0.9 94
2019-11-29 04:00:00 7.5 3 Nordeste 6 Nordeste 0.2 897.9 0.6 94
2019-11-29 03:00:00 7.7 2 Norte 8 Norte 0.2 897.6 0.3 94
2019-11-29 02:00:00 7.7 6 Norte 13 Nordeste 0.6 897.1 0.1 94
2019-11-29 01:00:00 7.5 4 Norte 10 Nordeste 0.4 897.3 0.3 94
2019-11-29 00:00:00 7.5 3 Noroeste 9 Nordeste 0.2 897.3 0.5 95
2019-11-28 23:00:00 7.5 5 Norte 9 Norte 1.4 897 0.3 94
2019-11-28 22:00:00 7.4 3 Norte 11 Norte 1 897 0.5 94
2019-11-28 21:00:00 7.5 4 Oeste 9 Norte 1.6 896.8 0.4 94
2019-11-28 20:00:00 7.6 6 Norte 11 Norte 2.2 896.7 0.7 93
2019-11-28 19:00:00 7.9 3 Noroeste 12 Nordeste 0.6 896.5 0.2 91
2019-11-28 18:00:00 8 6 Nordeste 13 Noroeste 1.4 896.4 0 90
2019-11-28 17:00:00 7.9 2 Noroeste 8 Nordeste 0 896 -0.5 93
2019-11-28 16:00:00 8.2 2 Oeste 5 Oeste 0 896.3 -0.3 91
2019-11-28 15:00:00 8.5 0 Calma 6 Sur 0.2 896.4 -0.9 90
2019-11-28 14:00:00 8.6 5 Sur 6 Sur 0 896.5 -0.7 89
2019-11-28 13:00:00 8.6 2 Sudoeste 6 Sur 0 896.6 0.1 87
2019-11-28 12:00:00 8.3 2 Sur 6 Sudeste 0.2 897.3 1.3 89
2019-11-28 11:00:00 8.3 2 Sudeste 17 Norte 0 897.2 1.9 88
2019-11-28 10:00:00 8.3 7 Nordeste 14 Nordeste 0 896.5 1.6 86
2019-11-28 09:00:00 6.1 9 Norte 15 Nordeste 0 896 1.5 92
2019-11-28 08:00:00 6 3 Nordeste 7 Norte 0 895.3 1.2 91
2019-11-28 07:00:00 6.2 4 Norte 11 Norte 0.4 894.9 0.9 91
2019-11-28 06:00:00 6.1 5 Norte 14 Nordeste 0.4 894.5 0.7 91
2019-11-28 05:00:00 6.5 6 Nordeste 12 Nordeste 0 894.1 0.2 89
2019-11-28 04:00:00 6.6 5 Nordeste 13 Oeste 0.4 894 0 89
2019-11-28 03:00:00 6.3 6 Nordeste 14 Nordeste 0 893.8 -0.3 91
2019-11-28 02:00:00 5.7 5 Norte 11 Nordeste 0 893.9 -0.2 94
2019-11-28 01:00:00 5.2 6 Norte 11 Nordeste 0.6 894 0.1 93
2019-11-28 00:00:00 4.6 4 Norte 21 Norte 1 894.1 -0.1 93
2019-11-27 23:00:00 4.5 8 Norte 22 Nordeste 2 894.1 0 90
2019-11-27 22:00:00 4.6 11 Norte 22 Nordeste 2 893.9 -0.1 90
2019-11-27 21:00:00 4.9 6 Norte 25 Norte 2.2 894.2 0.7 88
2019-11-27 20:00:00 5.5 9 Nordeste 15 Norte 2.2 894.1 1.1 90
2019-11-27 19:00:00 6.4 5 Norte 10 Oeste 1.8 894 1.4 87
2019-11-27 18:00:00 7.1 4 Noroeste 8 Norte 0.2 893.5 1 86
2019-11-27 17:00:00 8.1 3 Norte 11 Sudoeste 0 893 0.2 75
2019-11-27 16:00:00 8.7 4 Sur 10 Norte 0 892.6 -0.3 71
2019-11-27 15:00:00 9.3 7 Sudoeste 13 Oeste 0 892.5 -0.9 65
2019-11-27 14:00:00 9.2 3 Norte 17 Nordeste 0 892.8 -0.5 68
2019-11-27 06:00:00 6.6 6 Norte 24 Noroeste 0 890.6 1 73
2019-11-27 05:00:00 7.5 11 Norte 28 Oeste 0 890.3 0.6 72
2019-11-27 04:00:00 8.7 10 Norte -- -- 0 889.8 0.3 79
2019-11-27 03:00:00 8.6 6 Norte -- -- 0 889.6 0.7 83
2019-11-27 02:00:00 8.3 5 Norte -- -- 1.6 889.7 -0.7 88
2019-11-27 01:00:00 8.7 9 Noroeste -- -- 6 889.5 -1.4 88
2019-11-27 00:00:00 10.8 15 Sudeste 32 Sudeste 0 888.9 -2.1 79
2019-11-26 23:00:00 11.1 14 Sur 30 Sudeste 0 890.4 -0.9 78
2019-11-26 22:00:00 11.3 15 Sur 33 Sur 0 890.9 -0.3 76
2019-11-26 21:00:00 11.2 12 Sudeste 34 Sudeste 0 891 -0.5 77
2019-11-26 20:00:00 11.1 14 Sudeste 37 Sudeste 0 891.3 -0.7 78
2019-11-26 19:00:00 11 6 Sudeste 16 Este 0 891.2 -1.5 74
2019-11-26 18:00:00 10.9 11 Norte 19 Nordeste 0 891.5 -1.6 74
2019-11-26 17:00:00 11.7 3 Noroeste 9 Nordeste 0 892 -1.3 72
2019-11-26 16:00:00 11.8 4 Este 19 Este 0 892.7 -1.9 69
2019-11-26 15:00:00 11.9 10 Sur 17 Sur 0 893.1 -1.9 68
2019-11-26 14:00:00 11.8 3 Sudoeste 8 Sudeste 0 893.3 -2.3 71
2019-11-26 13:00:00 11.6 4 Sur 11 Oeste 0 894.6 -1.2 70
2019-11-26 12:00:00 11.6 5 Sudeste 9 Sur -- 895 -0.9 67
2019-11-26 11:00:00 8.5 3 Oeste 8 Sudoeste 0 895.6 0.1 79
2019-11-26 10:00:00 7.6 3 Sudeste 12 Nordeste 0 895.8 0.2 79
2019-11-26 09:00:00 5.5 3 Sudeste 13 Norte 0 895.9 0.3 85
2019-11-26 08:00:00 4.9 4 Norte 15 Nordeste 0 895.5 -0.3 83
2019-11-26 07:00:00 4.8 4 Oeste 15 Nordeste 0 895.6 -0.6 83
2019-11-26 06:00:00 4.8 4 Norte 19 Nordeste 0 895.6 -0.5 82
2019-11-26 05:00:00 5.4 9 Norte 18 Norte 0 895.8 -0.6 80
2019-11-26 04:00:00 4.6 5 Norte 16 Nordeste 0 896.2 -0.5 84
2019-11-26 03:00:00 4.8 5 Norte 15 Nordeste 0 896.1 -1 85
2019-11-26 02:00:00 4.5 4 Norte 15 Norte 0 896.4 -0.9 86
2019-11-26 01:00:00 5.2 9 Nordeste 21 Norte 0 896.7 -0.6 83
2019-11-26 00:00:00 5.5 8 Norte 16 Norte 0 897.1 0.1 84
2019-11-25 23:00:00 6 8 Norte 14 Nordeste 0 897.3 0.2 82
2019-11-25 22:00:00 5.9 4 Norte 18 Norte 0 897.3 0.5 83
2019-11-25 21:00:00 6.3 10 Norte 18 Nordeste 0 897 0.6 81
2019-11-25 20:00:00 6.4 4 Nordeste 18 Norte 0 897.1 1.4 87
2019-11-25 19:00:00 6.7 8 Norte 19 Nordeste 0 896.8 1.1 88
2019-11-25 18:00:00 7.7 7 Norte 13 Norte 0 896.4 0.8 86
2019-11-25 17:00:00 9.8 3 Sudeste 14 Sudoeste 0 895.7 0.2 79
2019-11-25 16:00:00 10.6 7 Sur 15 Sudoeste 0 895.7 0.1 77
2019-11-25 15:00:00 11.7 7 Sur 16 Sudoeste 0 895.6 -0.2 71
2019-11-25 14:00:00 10.3 8 Sur 13 Sur 0 895.5 -0.1 76
2019-11-25 13:00:00 9.7 5 Sudoeste 9 Este 0 895.6 0.2 79
2019-11-25 12:00:00 8.6 5 Sur 14 Sur 0 895.8 0.7 82
2019-11-25 11:00:00 8.4 8 Sudeste 14 Norte 0 895.6 1.2 86
2019-11-25 10:00:00 6.1 0 Calma 7 Nordeste 0 895.4 1.5 91
2019-11-25 09:00:00 5.4 5 Norte 11 Norte 0 895.1 1.2 91
2019-11-25 08:00:00 5 7 Noroeste 12 Norte 0 894.4 0.7 92
2019-11-25 07:00:00 4.7 3 Norte 13 Norte 0 893.9 0 90
2019-11-25 06:00:00 5.1 8 Norte 15 Nordeste 0 893.9 -0.1 91
2019-11-25 05:00:00 4.9 3 Oeste 10 Nordeste 0 893.7 -0.7 91
2019-11-25 04:00:00 4.6 5 Norte 9 Norte 0 893.9 -0.7 91
2019-11-25 03:00:00 4.2 3 Nordeste 15 Nordeste 0 894 -0.9 90
2019-11-25 02:00:00 3.2 5 Norte 11 Oeste 0 894.4 -0.8 91
2019-11-25 01:00:00 3.6 2 Sudoeste 10 Nordeste 0 894.6 0.5 90
2019-11-25 00:00:00 3.6 4 Noroeste 9 Sur 0 894.9 0.5 88
2019-11-24 23:00:00 3.8 6 Oeste 13 Norte 0 895.2 0.7 84
2019-11-24 22:00:00 3.2 8 Noroeste 18 Norte 0 894.1 -0.2 86
2019-11-24 21:00:00 2.8 8 Norte 17 Nordeste 0 894.4 0.1 88
2019-11-24 20:00:00 3 9 Norte 14 Norte 0 894.5 0.9 89
2019-11-24 19:00:00 3.7 3 Norte 9 Norte 0 894.3 1.1 88
2019-11-24 18:00:00 4.2 4 Norte 10 Nordeste 0 894.3 1.4 85
2019-11-24 17:00:00 5.7 4 Noroeste 26 Sudoeste 0 893.6 0.3 78
2019-11-24 16:00:00 8.1 9 Sudoeste 29 Sudoeste 0 893.2 -0.3 68
2019-11-24 15:00:00 9.6 5 Norte 21 Sudoeste 0 892.9 -0.9 56
2019-11-24 14:00:00 9.1 8 Noroeste 22 Noroeste 0 893.3 -1 62
2019-11-24 13:00:00 6.8 11 Oeste 27 Oeste 0 893.5 -0.7 77
2019-11-24 12:00:00 7.3 5 Noroeste 15 Norte 0 893.8 0 79
2019-11-24 11:00:00 5.2 5 Sudoeste 13 Sudoeste 0 894.3 1.6 87
2019-11-24 10:00:00 2.6 4 Sudoeste 11 Sudoeste 0 894.2 2.3 94
2019-11-24 09:00:00 2 2 Sudeste 14 Sur 0.4 893.8 2.3 93
2019-11-24 08:00:00 2 7 Oeste 28 Noroeste 0.2 892.7 1.7 92
2019-11-24 07:00:00 2.2 12 Noroeste 23 Noroeste 0 891.9 1.3 90
2019-11-24 06:00:00 2.1 6 Norte 24 Norte 0.2 891.5 1.6 92
2019-11-24 05:00:00 1.8 4 Norte 20 Noroeste 0 891 1.1 92
2019-11-24 04:00:00 2 5 Norte 15 Norte 0.2 890.6 0.8 92
2019-11-24 03:00:00 2.2 9 Noroeste 27 Noroeste 0 889.9 0.8 90
2019-11-24 02:00:00 2.6 10 Oeste 24 Noroeste 0 889.9 1.2 89
2019-11-24 01:00:00 2.8 10 Oeste 28 Oeste 0.2 889.8 1.7 89
2019-11-24 00:00:00 3.1 9 Noroeste 29 Oeste 0 889.1 1.7 84
2019-11-23 23:00:00 2.6 11 Oeste 35 Noroeste 0.4 888.7 1.9 90
2019-11-23 22:00:00 2.4 6 Oeste 22 Oeste 0.8 888.1 1.9 90
2019-11-23 21:00:00 2.6 8 Norte 30 Noroeste 0.4 887.4 2.5 89
2019-11-23 20:00:00 2.8 14 Oeste 31 Oeste 0.4 886.8 2.9 89
2019-11-23 19:00:00 2.9 11 Oeste 27 Sudoeste 0.4 886.2 3.6 88
2019-11-23 18:00:00 3.7 8 Oeste 27 Oeste 0.2 884.9 3 79
2019-11-23 17:00:00 3.6 6 Oeste 30 Oeste 0.2 883.9 3 86
2019-11-23 16:00:00 4.1 13 Oeste 33 Oeste 0.2 882.6 1.9 82
2019-11-23 15:00:00 4.4 5 Sur -- -- 0 881.9 1.6 81
2019-11-23 14:00:00 4.1 5 Norte 31 Oeste 0.6 880.9 1.6 83
2019-11-23 13:00:00 1.2 4 Sudoeste 14 Noroeste 2 880.7 2.4 93
2019-11-23 12:00:00 1 5 Oeste -- -- 3 880.3 3.1 93
2019-11-23 11:00:00 1.8 2 Este 6 Nordeste 1.6 879.3 3 94
2019-11-23 10:00:00 1.3 4 Nordeste 7 Nordeste 0.8 878.3 3.4 94
2019-11-23 09:00:00 1 3 Norte 12 Oeste 3 877.2 2.7 93
2019-11-23 08:00:00 3 8 Oeste 31 Oeste 5 876.3 1.9 88
2019-11-23 07:00:00 4.8 5 Oeste 11 Norte 0 874.9 0.7 92
2019-11-23 06:00:00 4.9 -- -- -- -- 0.2 874.5 0 92
2019-11-23 05:00:00 5.3 6 Oeste 13 Oeste 0 874.4 -0.1 90
2019-11-23 04:00:00 5 -- -- -- -- 0 874.2 -0.7 92
2019-11-23 03:00:00 5.1 -- -- -- -- 0.2 874.5 -0.6 93
2019-11-23 02:00:00 5.3 3 Sudoeste -- -- 0 874.5 -0.8 90
2019-11-23 01:00:00 5 -- -- -- -- 0 874.9 -0.8 91
2019-11-23 00:00:00 5 -- -- -- -- 0.4 875.1 -0.1 90
2019-11-22 23:00:00 5.5 10 Noroeste 23 Nordeste 1.8 875.3 -0.9 90
2019-11-22 22:00:00 -- 6 Sudeste -- -- 6.8 875.7 -1.4 89
2019-11-22 21:00:00 6.4 14 Este 39 Sur 1 875.2 -2.9 87
2019-11-22 20:00:00 6 18 Sudeste 44 Sur 0.8 876.2 -2.5 85
2019-11-22 19:00:00 5.7 17 Sudeste 48 Sudeste 2.6 877.1 -2.2 85
2019-11-22 18:00:00 5.5 14 Sudeste 39 Sur 2.2 878.1 -2 81
2019-11-22 17:00:00 4.8 18 Este 47 Nordeste 3.8 878.7 -2.6 84
2019-11-22 16:00:00 4.7 13 Este 42 Este 1.8 879.3 -3 85
2019-11-22 15:00:00 4.6 17 Sudeste 39 Sudeste 0.8 880.1 -4 85
2019-11-22 14:00:00 4.8 16 Sudeste 58 Sudeste 1.4 881.3 -3.5 83
2019-11-22 13:00:00 4.9 19 Sudeste 41 Sudeste 0.8 882.3 -3.2 83
2019-11-22 12:00:00 5.2 17 Sudeste 47 Sudeste 0.2 884.1 -2.1 80
2019-11-22 11:00:00 6.1 17 Sudeste 36 Sudeste 0 884.8 -2 70
2019-11-22 10:00:00 6 18 Sudeste 40 Sudeste 0 885.5 -1.7 69
2019-11-22 09:00:00 5.8 17 Sudeste 33 Sudeste 0 886.2 -1.4 70
2019-11-22 08:00:00 5.6 12 Sudeste 28 Sudeste 0 886.8 -1.5 70
2019-11-22 07:00:00 5.4 10 Sudeste 23 Sudeste 0 887.2 -1.4 70
2019-11-22 06:00:00 5 10 Este 24 Este 0 887.6 -1.5 72
2019-11-22 05:00:00 4.9 7 Nordeste 21 Nordeste 0 888.3 -1.3 74
2019-11-22 04:00:00 4.8 5 Sudeste 20 Sur 0 888.6 -1.5 76
2019-11-22 03:00:00 4.8 5 Sudoeste 17 Nordeste 0 889.1 -1.1 78
2019-11-22 02:00:00 4.6 5 Nordeste 16 Este 0 889.6 -1 78
2019-11-22 01:00:00 3.3 3 Norte 13 Noroeste 0 890.1 -0.5 85
2019-11-22 00:00:00 4.2 6 Norte 12 Norte 0 890.2 -0.2 80
2019-11-21 23:00:00 3.2 10 Norte 15 Nordeste 0 890.6 0.1 85
2019-11-21 22:00:00 3.1 10 Norte 16 Nordeste 0 890.6 0.2 88
2019-11-21 21:00:00 3.3 10 Norte 19 Nordeste 0 890.4 0.4 87
2019-11-21 20:00:00 2.8 10 Nordeste 19 Nordeste 0.2 890.5 0.6 88
2019-11-21 19:00:00 3.7 10 Nordeste 16 Norte 0 890.4 0.6 83
2019-11-21 18:00:00 3.7 8 Nordeste 13 Norte 0 890 0.6 84
2019-11-21 17:00:00 4.4 8 Norte 15 Nordeste 0 889.9 0.4 81
2019-11-21 16:00:00 5.3 3 Noroeste 11 Sudoeste 0 889.8 0 74
2019-11-21 15:00:00 5.6 5 Sudeste 18 Sudeste 0 889.4 -0.9 73
2019-11-21 14:00:00 5.8 8 Este 15 Sudeste 0 889.5 -1.1 71
2019-11-21 13:00:00 5.9 3 Sudeste 9 Sur 0 889.8 -0.5 72
2019-11-21 12:00:00 5.1 3 Sur 9 Nordeste 0 890.3 0.1 76
2019-11-21 11:00:00 4.3 3 Sudoeste 8 Sudoeste 0 890.6 0.7 79
2019-11-21 10:00:00 3.5 2 Norte 7 Nordeste 0 890.3 0.3 86
2019-11-21 09:00:00 3.2 3 Oeste 17 Nordeste 0 890.2 0.5 86
2019-11-21 08:00:00 -- -- -- -- -- -- -- -- --
2019-11-21 07:00:00 -- -- -- -- -- -- -- -- --
2019-11-21 06:00:00 -- -- -- -- -- -- -- -- --
2019-11-21 05:00:00 -- -- -- -- -- -- -- -- --
2019-11-21 04:00:00 -- -- -- -- -- -- -- -- --
2019-11-21 03:00:00 -- -- -- -- -- -- -- -- --
2019-11-21 02:00:00 -- -- -- -- -- -- -- -- --
2019-11-21 01:00:00 -- -- -- -- -- -- -- -- --
2019-11-21 00:00:00 -- -- -- -- -- -- -- -- --
2019-11-20 23:00:00 -- -- -- -- -- -- -- -- --
2019-11-20 22:00:00 3.5 2 Oeste 15 Norte 0 891 0.1 63
2019-11-20 21:00:00 3.3 3 Nordeste 20 Norte 0 891 0.1 70
2019-11-20 20:00:00 3.7 3 Este 20 Nordeste 0 891.2 0.2 71
2019-11-20 19:00:00 4 8 Nordeste 22 Nordeste 0 890.9 0 69
2019-11-20 18:00:00 3.2 17 Nordeste 23 Nordeste 0 890.9 -0.4 74
2019-11-20 17:00:00 5.7 9 Sur 17 Sur 0 891 -1 59
2019-11-20 16:00:00 6.6 11 Sudeste 22 Sudeste 0 890.9 -1.7 50
2019-11-20 15:00:00 7.5 8 Sur 18 Sur 0 891.3 -2 50
2019-11-20 14:00:00 7.1 7 Sudeste 24 Este 0 892 -1.7 46
2019-11-20 13:00:00 7.5 8 Sudeste 18 Sur 0 892.6 -1.2 43
2019-11-20 12:00:00 7.3 6 Sur 15 Sur 0 893.3 -0.8 45
2019-11-20 11:00:00 5.3 4 Sudeste 16 Nordeste 0 893.7 -0.2 51
2019-11-20 10:00:00 2.2 12 Nordeste 22 Nordeste 0 893.8 0 59
2019-11-20 09:00:00 0.1 13 Nordeste 22 Nordeste 0 894.1 0.2 67
2019-11-20 08:00:00 -0.7 4 Nordeste 20 Nordeste 0 893.9 0 68
2019-11-20 07:00:00 -1.1 5 Norte 18 Norte 0 893.8 -0.4 71
2019-11-20 06:00:00 -0.2 10 Norte 18 Norte 0 893.9 -1.1 65
2019-11-20 05:00:00 0.1 7 Norte 23 Norte 0 893.9 -1.5 64
2019-11-20 04:00:00 0.3 13 Norte 23 Nordeste 0 894.2 -1.6 69
2019-11-20 03:00:00 -0.1 16 Nordeste 24 Nordeste 0 895 -1.1 74
2019-11-20 02:00:00 -0.2 10 Norte 18 Nordeste 0 895.4 -0.7 74
2019-11-20 01:00:00 -0.2 8 Norte 14 Nordeste 0 895.8 -0.5 73
2019-11-20 00:00:00 -0.8 3 Norte 15 Norte 0 896.1 0 78
2019-11-19 23:00:00 0.2 3 Noroeste 20 Norte 0 896.1 -0.2 74
2019-11-19 22:00:00 0.7 12 Norte 21 Norte 0 896.3 0.2 77
2019-11-19 21:00:00 0.4 4 Norte 15 Norte 0 896.1 0.1 84
2019-11-19 20:00:00 0.8 4 Norte 19 Nordeste 0 896.3 0.3 82
2019-11-19 19:00:00 1.3 8 Norte 21 Norte 0 896.1 0.2 82
2019-11-19 18:00:00 2.2 10 Norte 22 Nordeste 0 896 0.2 78
2019-11-19 17:00:00 4.4 4 Nordeste 10 Sudoeste 0 896 -0.2 65
2019-11-19 16:00:00 8 8 Sudoeste 13 Sudoeste 0 895.9 -0.7 47
2019-11-19 15:00:00 8.4 6 Sur 10 Sur 0 895.8 -1.5 47
2019-11-19 14:00:00 8.2 6 Sur 10 Sur 0 896.2 -1.3 46
2019-11-19 13:00:00 6.8 7 Sur 11 Sur 0 896.6 -0.5 51
2019-11-19 12:00:00 6 4 Sudeste 9 Sur 0 897.3 0.1 51
2019-11-19 11:00:00 4.1 4 Sudeste 22 Nordeste 0 897.5 0.7 59
2019-11-19 10:00:00 1 14 Nordeste 21 Nordeste 0 897.1 0.5 66
2019-11-19 09:00:00 -0.7 6 Nordeste 13 Nordeste 0 897.2 0.7 74
2019-11-19 08:00:00 -2.5 6 Nordeste 14 Nordeste 0 896.8 0.4 77
2019-11-19 07:00:00 -2.1 8 Norte 15 Norte 0 896.6 -0.1 76
2019-11-19 06:00:00 -2.8 6 Noroeste 10 Oeste 0 896.5 -0.3 81
2019-11-19 05:00:00 -2.6 6 Norte 17 Norte 0 896.4 -0.3 79
2019-11-19 04:00:00 -2.3 5 Noroeste 14 Nordeste 0 896.7 0 75
2019-11-19 03:00:00 -2.3 6 Sudoeste 13 Oeste 0 896.8 0 74
2019-11-19 02:00:00 -2.4 5 Sur 12 Este 0 896.7 -0.5 74
2019-11-19 01:00:00 -1.7 6 Norte 15 Nordeste 0 896.7 -0.4 73
2019-11-19 00:00:00 -1.8 9 Norte 19 Norte 0 896.8 -0.1 76
2019-11-18 23:00:00 -2.1 3 Noroeste 18 Norte 0 897.2 0.8 78
2019-11-18 22:00:00 -1.9 4 Noroeste 9 Oeste 0 897.1 1.1 79
2019-11-18 21:00:00 -1.7 3 Noroeste 17 Nordeste 0 896.9 1.3 80
2019-11-18 20:00:00 -1.1 6 Norte 15 Nordeste 0 896.4 1.1 78
2019-11-18 19:00:00 -0.4 11 Norte 19 Norte 0 896 1.2 76
2019-11-18 18:00:00 0.4 3 Noroeste 45 Nordeste 0 895.6 1.2 69
2019-11-18 17:00:00 2.1 17 Norte 46 Nordeste 0 895.3 0.9 58
2019-11-18 16:00:00 3.8 9 Sudeste 37 Noroeste 0 894.8 0.7 53
2019-11-18 15:00:00 4.4 14 Noroeste 43 Norte 0 894.4 0.4 49
2019-11-18 14:00:00 4.3 13 Norte 48 Nordeste 0 894.4 0.5 49
2019-11-18 13:00:00 3.2 18 Norte 37 Norte 0 894.1 1 52
2019-11-18 12:00:00 3.2 15 Norte 49 Nordeste 0 894 1.7 54
2019-11-18 11:00:00 2.6 14 Nordeste 41 Nordeste 0 893.9 2.3 57
2019-11-18 10:00:00 2.1 20 Nordeste 45 Nordeste 0 893.1 1.9 69
2019-11-18 09:00:00 0.5 8 Sur 44 Norte 0 892.3 1.4 85
2019-11-18 08:00:00 0.4 5 Sudeste 19 Norte 0 891.6 0.9 88
2019-11-18 07:00:00 0.8 8 Norte 22 Noroeste 0 891.2 0.9 89
2019-11-18 06:00:00 0.6 4 Nordeste 11 Noroeste 0 890.9 0.7 94
2019-11-18 05:00:00 0.8 5 Norte 9 Oeste 0 890.7 0.5 94
2019-11-18 04:00:00 1 3 Norte 10 Noroeste 0 890.3 -0.2 94
2019-11-18 03:00:00 1.3 4 Norte 9 Nordeste 0.2 890.2 -0.1 94
2019-11-18 02:00:00 1.5 3 Noroeste 12 Oeste 0.6 890.2 -0.2 94
2019-11-18 01:00:00 1.3 4 Norte 8 Nordeste 0.4 890.5 -0.1 94
2019-11-18 00:00:00 1.5 4 Norte 10 Norte 0.2 890.3 -0.3 94
2019-11-17 23:00:00 1.1 2 Norte 8 Nordeste 0 890.4 -0.1 94
2019-11-17 22:00:00 1.2 4 Noroeste 7 Oeste 0 890.6 -0.2 94
2019-11-17 21:00:00 1.5 3 Norte 10 Noroeste 0 890.6 -0.1 93
2019-11-17 20:00:00 1.2 3 Norte 9 Nordeste 0 890.5 -0.2 93
2019-11-17 19:00:00 1.4 4 Norte 9 Norte 0 890.8 -0.1 93
2019-11-17 18:00:00 1.4 3 Norte 8 Nordeste 0 890.7 -0.5 93
2019-11-17 17:00:00 1.8 3 Norte 7 Nordeste 0 890.7 -0.6 91
2019-11-17 16:00:00 2.2 4 Nordeste 7 Norte 0.2 890.9 -1 91
2019-11-17 15:00:00 2.3 2 Norte 4 Noroeste 0.8 891.2 -1.1 89
2019-11-17 14:00:00 2 4 Oeste 6 Norte 1 891.3 -1.2 89
2019-11-17 13:00:00 2.2 5 Nordeste 7 Norte 0.6 891.9 -0.2 88
2019-11-17 12:00:00 2.9 2 Este 5 Sur 0.4 892.3 0.5 83
2019-11-17 11:00:00 2.2 0 Calma 8 Nordeste 0.4 892.5 0.5 85
2019-11-17 10:00:00 1.1 3 Noroeste 7 Nordeste 0.4 892.1 0.1 91
2019-11-17 09:00:00 -0.1 3 Sudeste 9 Nordeste 0.2 891.8 -0.3 93
2019-11-17 08:00:00 -0.6 3 Norte 8 Nordeste 0.2 892 -0.4 94
2019-11-17 07:00:00 -0.8 3 Este 9 Noroeste 0.2 892 -0.9 93
2019-11-17 06:00:00 -0.6 4 Norte 9 Nordeste 0.2 892.1 -1.1 93
2019-11-17 05:00:00 -0.5 3 Noroeste 13 Norte 0.2 892.4 -0.9 93
2019-11-17 04:00:00 -1 3 Oeste 12 Oeste 0 892.9 -0.7 93
2019-11-17 03:00:00 -1 4 Norte 10 Oeste 0.4 893.2 -0.8 93
2019-11-17 02:00:00 0 6 Oeste 19 Noroeste 0.4 893.3 -1 93
2019-11-17 01:00:00 0.6 7 Noroeste 21 Noroeste 0.4 893.6 -0.7 93
2019-11-17 00:00:00 0.5 6 Oeste 19 Oeste 0.6 894 -0.4 92
2019-11-16 23:00:00 0.6 4 Noroeste 10 Noroeste 1 894.3 -0.1 93
2019-11-16 22:00:00 0.4 3 Oeste 9 Oeste 1 894.3 0.1 94
2019-11-16 21:00:00 0.1 3 Norte 8 Norte 1.2 894.4 0.2 94
2019-11-16 20:00:00 0.1 3 Norte 6 Noroeste 1.6 894.4 0.6 94
2019-11-16 19:00:00 0 0 Calma 4 Oeste 1.4 894.2 0.5 94
2019-11-16 18:00:00 0 0 Calma 3 Norte 0.6 894.2 0.9 93
2019-11-16 17:00:00 0.6 0 Calma 3 Nordeste 0.8 893.8 0.4 92
2019-11-16 16:00:00 0.5 3 Nordeste 4 Nordeste 1 893.7 0.1 92
2019-11-16 15:00:00 1.1 0 Calma 4 Nordeste 0.8 893.3 -0.5 90
2019-11-16 14:00:00 0.5 3 Nordeste 7 Norte 0.8 893.4 -0.3 92
2019-11-16 13:00:00 0.2 0 Calma 6 Nordeste 1 893.6 0.4 91
2019-11-16 12:00:00 -0.3 4 Oeste 6 Oeste 0.2 893.8 0.9 88
2019-11-16 11:00:00 0.3 2 Sur 9 Norte 0 893.7 1.7 83
2019-11-16 10:00:00 -1.2 5 Norte 11 Norte 0 893.2 1.9 86
2019-11-16 09:00:00 -1.4 4 Norte 16 Nordeste 0 892.9 2.1 82
2019-11-16 08:00:00 -3.6 3 Norte 18 Norte 0 892 1.6 87
2019-11-16 07:00:00 -3.9 3 Noroeste 17 Nordeste 0 891.3 1.5 87
2019-11-16 06:00:00 -3.1 10 Norte 20 Norte 0 890.8 1.3 85
2019-11-16 05:00:00 -3.2 6 Norte 21 Norte 0 890.4 1.5 85
2019-11-16 04:00:00 -3 8 Norte 20 Norte 0 889.8 1.4 87
2019-11-16 03:00:00 -3.1 4 Noroeste 11 Nordeste 0 889.5 1.2 87
2019-11-16 02:00:00 -2.8 5 Norte 15 Norte 0 888.9 1.2 87
2019-11-16 01:00:00 -2.2 10 Norte 15 Norte 0 888.4 1.2 85
2019-11-16 00:00:00 -2.1 4 Norte 11 Norte 0 888.3 1.9 88
2019-11-15 23:00:00 -1.5 4 Sudoeste 9 Oeste 0.2 887.7 1.6 88
2019-11-15 22:00:00 -1.1 4 Norte 10 Norte 0 887.2 1.7 90
2019-11-15 21:00:00 -1 4 Oeste 8 Nordeste 0.2 886.4 1.5 92
2019-11-15 20:00:00 -0.6 3 Noroeste 8 Noroeste 0.4 886.1 2.1 91
2019-11-15 19:00:00 -0.6 3 Noroeste 12 Nordeste 0.2 885.5 2 89
2019-11-15 18:00:00 0 5 Norte 18 Noroeste 0.6 884.9 2.1 85
2019-11-15 17:00:00 0.8 5 Norte 20 Oeste 1.2 884 1.3 83
2019-11-15 16:00:00 1.1 6 Sudoeste 23 Sudoeste 2.6 883.5 0.8 90
2019-11-15 15:00:00 0.9 12 Sur 23 Sudoeste 0 882.8 -0.2 89
2019-11-15 14:00:00 2.5 0 Calma 8 Nordeste 0.4 882.7 -0.6 87
2019-11-15 13:00:00 0.9 5 Nordeste 9 Norte 0.4 882.7 -0.5 93
2019-11-15 12:00:00 0.1 4 Norte 7 Nordeste 1.2 883 -0.2 93
2019-11-15 11:00:00 0.2 0 Calma 7 Sudoeste 1 883.3 0.6 92
2019-11-15 10:00:00 -0.1 0 Calma 5 Sur 0.8 883.2 0.3 93
2019-11-15 09:00:00 -0.5 2 Noroeste 5 Noroeste 0.4 883.2 0.3 94
2019-11-15 08:00:00 -0.5 2 Nordeste 5 Sur 0 882.7 0.1 93
2019-11-15 07:00:00 -0.5 3 Sudeste 5 Nordeste 0 882.9 0.5 93
2019-11-15 06:00:00 -0.5 3 Norte 9 Norte 0 882.9 0.5 93
2019-11-15 05:00:00 -0.9 3 Noroeste 5 Oeste 0 882.6 0.5 93
2019-11-15 04:00:00 -1.1 3 Norte 11 Norte 0 882.4 0.1 91
2019-11-15 03:00:00 -1.4 5 Oeste 10 Oeste 0 882.4 0.5 88
2019-11-15 02:00:00 -1.4 3 Nordeste 10 Norte 0 882.1 0.3 89
2019-11-15 01:00:00 -1.3 7 Nordeste 12 Norte 0 882.3 0.8 87
2019-11-15 00:00:00 -1.5 3 Noroeste 13 Norte 0 881.9 0.7 89
2019-11-14 23:00:00 -0.5 4 Norte 16 Norte 0 881.8 0.6 87
2019-11-14 22:00:00 -1 4 Norte 16 Norte 0 881.5 0.5 88
2019-11-14 21:00:00 -0.6 6 Norte 15 Nordeste 0 881.2 0.4 87
2019-11-14 20:00:00 -0.3 3 Norte 15 Nordeste 0 881.2 0.4 87
2019-11-14 19:00:00 0.4 5 Norte 10 Nordeste 0 881 0.1 88
2019-11-14 18:00:00 1.4 3 Nordeste 9 Norte 0 880.8 -0.4 84
2019-11-14 17:00:00 1.6 2 Noroeste 7 Norte 0 880.8 -0.6 87
2019-11-14 16:00:00 1.9 4 Norte 19 Noroeste 0 880.9 -0.7 84
2019-11-14 15:00:00 3.9 4 Sudoeste 24 Sudoeste 0 881.2 -1 69
2019-11-14 14:00:00 5 12 Sudoeste 36 Sudoeste 0 881.4 -1.8 68
2019-11-14 13:00:00 4.5 15 Sudoeste 29 Oeste 0 881.6 -1 68
2019-11-14 12:00:00 4.4 6 Oeste 22 Sur 0 882.2 -1.7 82
2019-11-14 11:00:00 1.5 6 Oeste 21 Sudoeste 0 883.2 -0.4 91
2019-11-14 10:00:00 0.7 3 Norte 14 Sudoeste 0.2 882.6 -0.8 93
2019-11-14 09:00:00 0.3 7 Sur 12 Sudoeste 0.4 883.9 0.4 94
2019-11-14 08:00:00 0.6 5 Norte 20 Noroeste 1.8 883.6 -0.2 93
2019-11-14 07:00:00 0.5 4 Norte 11 Noroeste 2.6 883.4 -1.7 93
2019-11-14 06:00:00 2.1 8 Norte 19 Norte 3 883.5 -2.9 91
2019-11-14 05:00:00 3.4 11 Nordeste 17 Nordeste 2.4 883.8 -3.2 91
2019-11-14 04:00:00 4.4 3 Norte 11 Nordeste 1.2 885.1 -3.1 87
2019-11-14 03:00:00 5 4 Sudoeste 14 Oeste 0.6 886.4 -2.6 85
2019-11-14 02:00:00 6 9 Oeste 17 Noroeste 0 887 -2.3 75
2019-11-14 01:00:00 5.6 3 Norte 11 Nordeste 0 888.2 -2.5 75
2019-11-14 00:00:00 5.2 3 Noroeste 13 Nordeste 0 889 -2.4 79
2019-11-13 23:00:00 5 8 Norte 12 Norte 0 889.3 -2.9 81
2019-11-13 22:00:00 4.6 3 Noroeste 9 Noroeste 0 890.7 -2.3 80
2019-11-13 21:00:00 3.8 5 Noroeste 15 Nordeste 0 891.4 -1.6 79
2019-11-13 20:00:00 3.1 5 Nordeste 17 Nordeste 0 892.2 -0.6 76
2019-11-13 19:00:00 2.7 9 Norte 15 Nordeste 0 893 1.2 80
2019-11-13 18:00:00 4.2 7 Noroeste 26 Noroeste 0 893 1.1 75
2019-11-13 17:00:00 5.3 12 Oeste 41 Sudoeste 0 892.8 0.8 69
2019-11-13 16:00:00 7.5 14 Oeste -- -- 0 891.8 0.2 66
2019-11-13 15:00:00 9.3 14 Sudoeste -- -- 0 891.9 0.3 53
2019-11-13 14:00:00 9.5 7 Este -- -- 0 892 1.1 42
2019-11-13 13:00:00 10.3 -- -- -- -- 0 891.6 1.7 41
2019-11-13 12:00:00 10.1 -- -- -- -- 0 891.6 2.6 46
2019-11-13 11:00:00 9.5 14 Nordeste 27 Nordeste 0 890.9 2.9 52
2019-11-13 10:00:00 6.8 7 Sur 23 Norte 0 889.9 2.8 77
2019-11-13 09:00:00 3.6 8 Oeste 19 Oeste 0 889 2.1 89
2019-11-13 08:00:00 2.6 6 Oeste 12 Nordeste 0 888 1.2 91
2019-11-13 07:00:00 2.4 4 Norte 8 Oeste 0 887.1 -0.3 92
2019-11-13 06:00:00 2.6 4 Norte 9 Nordeste 0 886.9 -1.2 90
2019-11-13 05:00:00 2.8 5 Norte 13 Norte 0 886.8 -1.8 89
2019-11-13 04:00:00 3 3 Norte 6 Sudoeste 0 887.4 -1.8 88
2019-11-13 03:00:00 3 2 Nordeste 6 Nordeste 0 888.1 -1.9 88
2019-11-13 02:00:00 3.2 3 Oeste 14 Norte 0 888.6 -2.4 88
2019-11-13 01:00:00 3.4 3 Nordeste 14 Nordeste 0 889.2 -2 86
2019-11-13 00:00:00 3.9 8 Norte 14 Nordeste 0 890 -1.4 85
2019-11-12 23:00:00 4.1 3 Oeste 11 Norte 0 891 -0.7 85
2019-11-12 22:00:00 3.9 6 Norte 14 Noroeste 0 891.2 -0.8 85
2019-11-12 21:00:00 4.2 8 Oeste 16 Oeste 0 891.4 -0.7 86
2019-11-12 20:00:00 3.9 4 Norte 13 Noroeste 0 891.7 -0.7 87
2019-11-12 19:00:00 3.3 5 Norte 12 Sudoeste 0 892 -0.4 87
2019-11-12 18:00:00 4.7 8 Oeste 31 Oeste 0 892.1 -0.8 81
2019-11-12 17:00:00 6 17 Sudoeste 33 Sudoeste 0 892.4 -0.7 74
2019-11-12 16:00:00 7.8 10 Oeste 28 Oeste 0 892.4 -1.4 61
2019-11-12 15:00:00 7.7 10 Noroeste 27 Oeste 0 892.9 -1.4 61
2019-11-12 14:00:00 9.5 8 Oeste 30 Sudoeste 0 893.1 -1.7 55
2019-11-12 13:00:00 8.1 12 Oeste 32 Oeste 0 893.8 -1.1 56
2019-11-12 12:00:00 8.2 11 Oeste 39 Noroeste 0 894.3 -0.9 55
2019-11-12 11:00:00 7.9 5 Sudoeste 14 Sudoeste 0 894.8 -0.2 62
2019-11-12 10:00:00 5.7 7 Nordeste 12 Nordeste 0 894.9 -0.1 72
2019-11-12 09:00:00 2.7 3 Oeste 11 Nordeste 0 895.2 -0.2 82
2019-11-12 08:00:00 1.2 7 Norte 16 Nordeste 0 895 -0.3 87
2019-11-12 07:00:00 1.2 3 Sudoeste 14 Nordeste 0 895 -0.2 84
2019-11-12 06:00:00 0.8 2 Sudoeste 9 Sudoeste 0 895.4 -0.1 86
2019-11-12 05:00:00 1.4 4 Este 14 Nordeste 0 895.3 -0.5 83
2019-11-12 04:00:00 1.8 3 Sudoeste 13 Sudoeste 0 895.2 -0.9 77
2019-11-12 03:00:00 2.1 3 Noroeste 15 Norte 0 895.5 -0.9 74
2019-11-12 02:00:00 1.9 4 Sudeste 12 Nordeste 0 895.8 -0.8 79
2019-11-12 01:00:00 2.2 4 Nordeste -- -- 0 896.1 -0.5 73
2019-11-12 00:00:00 2 8 Este 21 Sur 0 896.4 -0.1 82
2019-11-11 23:00:00 2.4 3 Oeste 17 Nordeste 0 896.6 0.6 81
2019-11-11 22:00:00 2.9 4 Noroeste 23 Oeste 0 896.6 0.9 75
2019-11-11 21:00:00 4 8 Noroeste 31 Norte 0 896.5 1.5 65
2019-11-11 20:00:00 4 10 Oeste 48 Noroeste 0 896 1.1 67
2019-11-11 19:00:00 3.3 4 Oeste -- -- 0 895.7 1 84
2019-11-11 18:00:00 4.8 15 Noroeste 34 Noroeste 0 895 0.1 73
2019-11-11 17:00:00 5.4 16 Noroeste 39 Noroeste 0.2 894.9 0.1 75
2019-11-11 16:00:00 4.9 6 Noroeste 20 Sudoeste 0.6 894.7 -0.3 90
2019-11-11 15:00:00 4.7 6 Sudoeste 18 Sudoeste 0.4 894.9 -0.5 88
2019-11-11 14:00:00 5.8 8 Sudoeste 15 Sudoeste 0.6 894.8 -1 82
2019-11-11 13:00:00 8.6 4 Sur 8 Sur 0 895 -1.2 59
2019-11-11 12:00:00 7.2 2 Sur 6 Sudeste 0 895.4 -0.6 62
2019-11-11 11:00:00 5.5 2 Nordeste 10 Nordeste 0 895.8 0.2 71
2019-11-11 10:00:00 2.6 3 Norte 7 Norte 0 896.2 0.6 81
2019-11-11 09:00:00 0.8 4 Nordeste 12 Norte 0 896 0 88
2019-11-11 08:00:00 0.5 4 Nordeste -- -- 0 895.6 -0.2 85
2019-11-11 07:00:00 0.4 -- -- -- -- 0 895.6 -0.4 85
2019-11-11 06:00:00 0.3 6 Norte 17 Norte 0 896 -0.5 83
2019-11-11 05:00:00 -0.8 6 Norte 10 Norte 0 895.8 -0.7 87
2019-11-11 04:00:00 -0.5 5 Nordeste -- -- 0 896 -0.9 84
2019-11-11 03:00:00 -0.1 6 Norte -- -- 0 896.5 -0.2 82
2019-11-11 02:00:00 -0.3 -- -- -- -- 0 896.5 0.4 82
2019-11-11 01:00:00 -0.3 3 Oeste -- -- 0 896.9 1 81
2019-11-11 00:00:00 0.1 -- -- -- -- 0 896.7 1 78